createdAt,value
2017-05-02T00:01:34.416Z,11.64
2017-05-02T00:04:03.472Z,15.10
2017-05-02T00:06:33.299Z,12.90
2017-05-02T00:09:02.415Z,14.04
2017-05-02T00:11:31.503Z,13.48
2017-05-02T00:14:00.590Z,14.26
2017-05-02T00:16:29.689Z,13.12
2017-05-02T00:18:58.904Z,14.70
2017-05-02T00:21:28.218Z,15.66
2017-05-02T00:23:57.302Z,15.94
2017-05-02T00:26:26.418Z,13.02
2017-05-02T00:28:55.534Z,12.90
2017-05-02T00:31:24.675Z,12.08
2017-05-02T00:33:53.777Z,13.34
2017-05-02T00:36:23.047Z,11.74
2017-05-02T00:38:52.094Z,13.84
2017-05-02T00:41:21.235Z,11.96
2017-05-02T00:43:50.345Z,14.80
2017-05-02T00:46:19.450Z,13.72
2017-05-02T00:48:48.667Z,13.64
2017-05-02T00:51:17.958Z,15.04
2017-05-02T00:53:47.022Z,15.68
2017-05-02T00:56:16.148Z,14.38
2017-05-02T00:58:45.235Z,14.42
2017-05-02T01:01:14.527Z,13.92
2017-05-02T01:03:43.642Z,13.84
2017-05-02T01:06:12.845Z,12.44
2017-05-02T01:08:41.963Z,12.94
2017-05-02T01:11:11.246Z,13.04
2017-05-02T01:13:40.339Z,12.44
2017-05-02T01:16:09.402Z,13.30
2017-05-02T01:18:38.510Z,11.86
2017-05-02T01:21:07.615Z,12.84
2017-05-02T01:23:36.688Z,12.08
2017-05-02T01:26:05.914Z,11.58
2017-05-02T01:28:35.008Z,11.60
2017-05-02T01:31:04.098Z,13.24
2017-05-02T01:33:33.221Z,15.02
2017-05-02T01:36:02.275Z,15.04
2017-05-02T01:38:31.395Z,13.76
2017-05-02T01:41:00.491Z,16.46
2017-05-02T01:43:29.779Z,13.02
2017-05-02T01:45:58.966Z,13.08
2017-05-02T01:48:28.056Z,12.42
2017-05-02T01:50:57.300Z,13.96
2017-05-02T01:53:27.130Z,13.72
2017-05-02T01:55:56.311Z,11.06
2017-05-02T01:58:25.383Z,11.42
2017-05-02T02:00:54.475Z,15.44
2017-05-02T02:03:23.591Z,12.12
2017-05-02T02:05:52.679Z,14.66
2017-05-02T02:08:21.864Z,13.28
2017-05-02T02:10:51.251Z,14.08
2017-05-02T02:13:20.298Z,13.90
2017-05-02T02:15:49.378Z,15.00
2017-05-02T02:18:19.215Z,14.12
2017-05-02T02:20:48.475Z,14.28
2017-05-02T02:23:17.563Z,14.58
2017-05-02T02:25:47.546Z,15.92
2017-05-02T02:28:16.632Z,12.72
2017-05-02T02:30:45.718Z,13.54
2017-05-02T02:33:14.828Z,14.56
2017-05-02T02:35:43.906Z,14.34
2017-05-02T02:38:13.023Z,14.36
2017-05-02T02:40:42.087Z,14.70
2017-05-02T02:43:11.915Z,14.92
2017-05-02T02:45:40.998Z,13.20
2017-05-02T02:48:10.310Z,14.34
2017-05-02T02:50:39.407Z,14.10
2017-05-02T02:53:08.503Z,15.22
2017-05-02T02:55:37.638Z,15.50
2017-05-02T02:58:06.716Z,15.48
2017-05-02T03:00:36.123Z,16.02
2017-05-02T03:03:05.175Z,18.94
2017-05-02T03:05:34.271Z,15.90
2017-05-02T03:08:03.395Z,18.50
2017-05-02T03:10:32.483Z,16.94
2017-05-02T03:13:01.554Z,16.60
2017-05-02T03:15:31.388Z,16.02
2017-05-02T03:18:00.783Z,17.26
2017-05-02T03:20:29.870Z,17.68
2017-05-02T03:22:58.930Z,15.88
2017-05-02T03:25:28.027Z,16.40
2017-05-02T03:27:57.863Z,17.36
2017-05-02T03:30:26.972Z,14.84
2017-05-02T03:32:56.039Z,16.00
2017-05-02T03:35:25.159Z,16.28
2017-05-02T03:37:54.268Z,16.76
2017-05-02T03:40:23.464Z,14.74
2017-05-02T03:42:52.583Z,17.06
2017-05-02T03:45:21.648Z,16.04
2017-05-02T03:47:50.872Z,14.04
2017-05-02T03:50:19.954Z,15.34
2017-05-02T03:52:49.022Z,15.12
2017-05-02T03:55:18.112Z,16.00
2017-05-02T03:57:47.193Z,16.04
2017-05-02T04:00:16.387Z,16.06
2017-05-02T04:02:45.475Z,13.46
2017-05-02T04:05:15.296Z,15.38
2017-05-02T04:07:44.410Z,12.42
2017-05-02T04:10:13.479Z,12.80
2017-05-02T04:12:42.597Z,12.50
2017-05-02T04:15:12.392Z,13.46
2017-05-02T04:17:42.547Z,14.96
2017-05-02T04:20:11.638Z,12.50
2017-05-02T04:22:40.735Z,12.74
2017-05-02T04:25:09.835Z,12.14
2017-05-02T04:27:38.923Z,12.84
2017-05-02T04:30:08.138Z,10.96
2017-05-02T04:32:37.223Z,11.64
2017-05-02T04:35:06.318Z,10.12
2017-05-02T04:37:35.407Z,14.42
2017-05-02T04:40:04.497Z,11.70
2017-05-02T04:42:33.611Z,13.26
2017-05-02T04:45:02.719Z,12.78
2017-05-02T04:47:33.620Z,11.34
2017-05-02T04:50:02.698Z,12.74
2017-05-02T04:52:31.787Z,13.84
2017-05-02T04:55:00.894Z,11.38
2017-05-02T04:57:30.007Z,11.74
2017-05-02T04:59:59.126Z,13.58
2017-05-02T05:02:28.182Z,11.00
2017-05-02T05:04:57.412Z,13.34
2017-05-02T05:07:26.478Z,15.08
2017-05-02T05:09:56.636Z,14.24
2017-05-02T05:12:25.731Z,13.64
2017-05-02T05:14:54.826Z,15.88
2017-05-02T05:17:24.183Z,12.86
2017-05-02T05:19:53.281Z,14.56
2017-05-02T05:22:22.343Z,13.86
2017-05-02T05:24:51.427Z,16.20
2017-05-02T05:27:21.258Z,14.40
2017-05-02T05:29:51.306Z,17.34
2017-05-02T05:32:20.396Z,14.58
2017-05-02T05:34:49.591Z,14.12
2017-05-02T05:37:18.703Z,13.90
2017-05-02T05:39:47.786Z,16.18
2017-05-02T05:42:16.904Z,17.86
2017-05-02T05:44:45.965Z,14.94
2017-05-02T05:47:15.186Z,15.72
2017-05-02T05:49:44.279Z,16.88
2017-05-02T05:52:13.329Z,16.34
2017-05-02T05:54:43.171Z,15.10
2017-05-02T05:57:12.268Z,11.34
2017-05-02T05:59:41.361Z,15.14
2017-05-02T06:02:10.475Z,15.52
2017-05-02T06:04:39.699Z,12.20
2017-05-02T06:07:09.535Z,14.20
2017-05-02T06:09:38.623Z,11.82
2017-05-02T06:12:07.739Z,10.34
2017-05-02T06:14:36.967Z,11.82
2017-05-02T06:17:06.055Z,11.72
2017-05-02T06:19:35.182Z,11.34
2017-05-02T06:22:05.208Z,11.30
2017-05-02T06:24:34.303Z,11.32
2017-05-02T06:27:03.389Z,11.00
2017-05-02T06:29:32.498Z,9.66
2017-05-02T06:32:02.327Z,10.02
2017-05-02T06:34:31.455Z,13.00
2017-05-02T06:37:01.162Z,10.32
2017-05-02T06:39:30.459Z,11.30
2017-05-02T06:41:59.562Z,11.64
2017-05-02T06:44:28.632Z,9.52
2017-05-02T06:46:57.771Z,11.20
2017-05-02T06:49:26.859Z,11.12
2017-05-02T06:51:56.062Z,11.14
2017-05-02T06:54:25.122Z,10.16
2017-05-02T06:56:54.917Z,11.34
2017-05-02T06:59:24.051Z,12.48
2017-05-02T07:01:53.154Z,12.56
2017-05-02T07:04:22.540Z,11.38
2017-05-02T07:06:51.631Z,12.20
2017-05-02T07:09:20.838Z,14.42
2017-05-02T07:11:49.946Z,14.60
2017-05-02T07:14:19.007Z,14.72
2017-05-02T07:16:48.130Z,16.68
2017-05-02T07:19:17.999Z,11.10
2017-05-02T07:21:47.428Z,11.64
2017-05-02T07:24:16.509Z,10.00
2017-05-02T07:26:46.303Z,9.44
2017-05-02T07:29:16.150Z,11.80
2017-05-02T07:31:45.250Z,11.18
2017-05-02T07:34:14.478Z,9.50
2017-05-02T07:36:43.583Z,10.30
2017-05-02T07:39:13.422Z,8.28
2017-05-02T07:41:42.507Z,10.42
2017-05-02T07:44:12.343Z,16.82
2017-05-02T07:46:41.613Z,14.94
2017-05-02T07:49:10.769Z,14.90
2017-05-02T07:51:39.858Z,11.66
2017-05-02T07:54:09.014Z,12.52
2017-05-02T07:56:38.088Z,14.08
2017-05-02T07:59:07.952Z,12.86
2017-05-02T08:01:37.039Z,14.56
2017-05-02T08:04:06.255Z,14.58
2017-05-02T08:06:35.342Z,14.40
2017-05-02T08:09:04.450Z,9.00
2017-05-02T08:11:33.735Z,10.10
2017-05-02T08:14:03.098Z,10.82
2017-05-02T08:16:32.215Z,11.48
2017-05-02T08:19:01.402Z,9.38
2017-05-02T08:21:30.739Z,10.34
2017-05-02T08:23:59.835Z,9.64
2017-05-02T08:26:28.913Z,11.12
2017-05-02T08:28:58.040Z,9.98
2017-05-02T08:31:27.115Z,10.94
2017-05-02T08:33:56.242Z,10.96
2017-05-02T08:36:25.335Z,11.32
2017-05-02T08:38:55.303Z,11.00
2017-05-02T08:41:24.372Z,12.16
2017-05-02T08:43:54.186Z,10.22
2017-05-02T08:46:23.299Z,10.52
2017-05-02T08:48:52.396Z,13.32
2017-05-02T08:51:21.639Z,11.00
2017-05-02T08:53:50.695Z,11.80
2017-05-02T08:56:19.792Z,11.80
2017-05-02T08:58:48.880Z,10.78
2017-05-02T09:01:18.039Z,10.80
2017-05-02T09:03:47.232Z,12.30
2017-05-02T09:06:17.070Z,12.60
2017-05-02T09:08:46.166Z,10.46
2017-05-02T09:11:15.299Z,11.18
2017-05-02T09:13:44.535Z,11.18
2017-05-02T09:16:13.621Z,10.20
2017-05-02T09:18:43.446Z,9.66
2017-05-02T09:21:12.794Z,11.30
2017-05-02T09:23:41.935Z,10.04
2017-05-02T09:26:11.048Z,9.84
2017-05-02T09:28:40.948Z,10.44
2017-05-02T09:31:10.047Z,10.56
2017-05-02T09:33:39.904Z,10.04
2017-05-02T09:36:09.794Z,10.68
2017-05-02T09:38:38.922Z,10.00
2017-05-02T09:41:08.028Z,12.78
2017-05-02T09:43:37.120Z,12.76
2017-05-02T09:46:06.241Z,14.10
2017-05-02T09:48:36.071Z,12.34
2017-05-02T09:51:05.396Z,13.58
2017-05-02T09:53:34.491Z,12.68
2017-05-02T09:56:03.588Z,11.62
2017-05-02T09:58:32.710Z,11.18
2017-05-02T10:01:01.771Z,10.86
2017-05-02T10:03:31.077Z,10.28
2017-05-02T10:06:00.166Z,11.90
2017-05-02T10:08:29.244Z,12.04
2017-05-02T10:10:58.371Z,11.56
2017-05-02T10:13:27.459Z,11.68
2017-05-02T10:15:56.579Z,12.32
2017-05-02T10:18:26.535Z,11.38
2017-05-02T10:20:55.969Z,13.20
2017-05-02T10:23:25.070Z,14.06
2017-05-02T10:25:54.165Z,13.28
2017-05-02T10:28:23.284Z,18.02
2017-05-02T10:30:52.378Z,15.10
2017-05-02T10:33:21.716Z,13.26
2017-05-02T10:35:50.794Z,14.56
2017-05-02T10:38:20.637Z,15.02
2017-05-02T10:40:50.479Z,17.44
2017-05-02T10:43:19.571Z,14.24
2017-05-02T10:45:48.808Z,15.64
2017-05-02T10:48:18.663Z,15.84
2017-05-02T10:50:47.772Z,15.18
2017-05-02T10:53:16.909Z,16.54
2017-05-02T10:55:45.969Z,16.02
2017-05-02T10:58:15.086Z,16.80
2017-05-02T11:00:44.140Z,15.56
2017-05-02T11:03:13.279Z,17.74
2017-05-02T11:05:42.376Z,16.92
2017-05-02T11:08:11.751Z,17.68
2017-05-02T11:10:40.835Z,17.68
2017-05-02T11:13:09.983Z,19.16
2017-05-02T11:15:39.893Z,19.88
2017-05-02T11:18:09.946Z,19.66
2017-05-02T11:20:39.082Z,21.06
2017-05-02T11:23:08.184Z,22.22
2017-05-02T11:25:38.168Z,22.42
2017-05-02T11:28:07.263Z,21.90
2017-05-02T11:30:36.399Z,26.84
2017-05-02T11:33:05.664Z,23.12
2017-05-02T11:35:34.715Z,26.56
2017-05-02T11:38:03.974Z,24.90
2017-05-02T11:40:33.087Z,22.90
2017-05-02T11:43:02.935Z,25.62
2017-05-02T11:45:32.763Z,23.00
2017-05-02T11:48:01.870Z,26.32
2017-05-02T11:50:30.979Z,24.30
2017-05-02T11:53:00.089Z,25.26
2017-05-02T11:55:29.352Z,27.04
2017-05-02T11:57:58.447Z,23.58
2017-05-02T12:00:28.395Z,25.48
2017-05-02T12:02:57.701Z,24.64
2017-05-02T12:05:26.795Z,27.96
2017-05-02T12:07:56.882Z,25.96
2017-05-02T12:10:25.982Z,28.90
2017-05-02T12:12:55.065Z,26.70
2017-05-02T12:15:24.174Z,25.06
2017-05-02T12:17:53.264Z,25.74
2017-05-02T12:20:22.547Z,28.36
2017-05-02T12:22:51.686Z,23.84
2017-05-02T12:25:20.751Z,31.20
2017-05-02T12:27:50.607Z,26.56
2017-05-02T12:30:20.451Z,30.78
2017-05-02T12:32:49.676Z,31.02
2017-05-02T12:35:18.773Z,27.86
2017-05-02T12:37:47.853Z,30.30
2017-05-02T12:40:16.964Z,26.48
2017-05-02T12:42:46.062Z,29.92
2017-05-02T12:45:15.224Z,27.56
2017-05-02T12:47:44.318Z,27.36
2017-05-02T12:50:13.631Z,28.48
2017-05-02T12:52:42.727Z,23.52
2017-05-02T12:57:40.927Z,25.56
2017-05-02T13:00:10.040Z,24.94
2017-05-02T13:02:39.161Z,25.68
2017-05-02T13:05:08.999Z,25.38
2017-05-02T13:07:38.526Z,24.46
2017-05-02T13:10:07.623Z,25.04
2017-05-02T13:12:37.322Z,24.32
2017-05-02T13:15:06.487Z,26.38
2017-05-02T13:17:36.299Z,24.44
2017-05-02T13:20:05.491Z,26.96
2017-05-02T13:22:35.307Z,25.74
2017-05-02T13:25:04.392Z,25.50
2017-05-02T13:27:34.251Z,24.68
2017-05-02T13:30:04.011Z,23.54
2017-05-02T13:32:33.863Z,26.78
2017-05-02T13:35:02.947Z,24.54
2017-05-02T13:37:32.177Z,24.36
2017-05-02T13:40:01.279Z,24.54
2017-05-02T13:42:30.327Z,24.62
2017-05-02T13:44:59.435Z,24.54
2017-05-02T13:47:28.518Z,24.62
2017-05-02T13:49:57.727Z,22.38
2017-05-02T13:52:26.811Z,24.14
2017-05-02T13:54:55.895Z,22.92
2017-05-02T13:57:25.855Z,21.34
2017-05-02T13:59:54.912Z,22.72
2017-05-02T14:02:23.992Z,23.18
2017-05-02T14:04:53.466Z,21.00
2017-05-02T14:07:22.536Z,21.22
2017-05-02T14:09:51.602Z,24.22
2017-05-02T14:12:21.432Z,22.86
2017-05-02T14:14:50.531Z,23.70
2017-05-02T14:17:19.827Z,23.00
2017-05-02T14:19:48.935Z,24.96
2017-05-02T14:22:18.019Z,22.20
2017-05-02T14:24:47.443Z,24.78
2017-05-02T14:27:16.553Z,20.70
2017-05-02T14:29:46.092Z,21.62
2017-05-02T14:32:15.242Z,20.00
2017-05-02T14:34:45.104Z,21.08
2017-05-02T14:37:14.548Z,22.04
2017-05-02T14:39:43.688Z,19.56
2017-05-02T14:42:12.955Z,19.48
2017-05-02T14:44:42.250Z,20.44
2017-05-02T14:47:11.352Z,20.06
2017-05-02T14:49:40.430Z,18.00
2017-05-02T14:52:09.561Z,18.24
2017-05-02T14:54:39.419Z,21.60
2017-05-02T14:57:09.092Z,18.06
2017-05-02T14:59:38.256Z,16.12
2017-05-02T15:02:07.483Z,18.08
2017-05-02T15:04:36.778Z,15.72
2017-05-02T15:07:05.895Z,19.18
2017-05-02T15:09:35.646Z,19.22
2017-05-02T15:12:04.984Z,16.52
2017-05-02T15:14:34.950Z,15.64
2017-05-02T15:17:04.179Z,14.54
2017-05-02T15:19:34.060Z,16.56
2017-05-02T15:22:03.462Z,18.50
2017-05-02T15:24:33.255Z,16.64
2017-05-02T15:27:02.396Z,16.44
2017-05-02T15:29:31.683Z,15.56
2017-05-02T15:32:00.772Z,15.22
2017-05-02T15:34:29.869Z,14.74
2017-05-02T15:36:59.059Z,15.08
2017-05-02T15:39:28.135Z,14.12
2017-05-02T15:41:57.229Z,15.70
2017-05-02T15:44:26.591Z,15.86
2017-05-02T15:46:56.435Z,15.88
2017-05-02T15:49:25.542Z,16.52
2017-05-02T15:51:54.868Z,19.36
2017-05-02T15:54:23.964Z,15.68
2017-05-02T15:56:53.076Z,15.56
2017-05-02T15:59:22.287Z,14.86
2017-05-02T16:01:51.626Z,15.62
2017-05-02T16:04:20.710Z,17.62
2017-05-02T16:06:49.823Z,16.86
2017-05-02T16:09:18.919Z,16.38
2017-05-02T16:11:48.143Z,16.88
2017-05-02T16:14:17.222Z,16.94
2017-05-02T16:16:46.336Z,17.34
2017-05-02T16:19:15.565Z,18.08
2017-05-02T16:21:44.663Z,17.66
2017-05-02T16:24:14.525Z,20.00
2017-05-02T16:26:43.636Z,18.34
2017-05-02T16:29:12.715Z,16.26
2017-05-02T16:31:41.931Z,19.16
2017-05-02T16:34:11.026Z,18.24
2017-05-02T16:36:40.179Z,19.90
2017-05-02T16:39:09.427Z,20.46
2017-05-02T16:41:38.717Z,18.38
2017-05-02T16:44:07.760Z,18.78
2017-05-02T16:46:37.739Z,19.72
2017-05-02T16:49:06.822Z,18.18
2017-05-02T16:51:35.918Z,19.20
2017-05-02T16:54:05.138Z,17.66
2017-05-02T16:56:34.206Z,17.48
2017-05-02T16:59:03.306Z,21.22
2017-05-02T17:01:32.403Z,20.44
2017-05-02T17:04:01.510Z,18.24
2017-05-02T17:06:30.620Z,18.36
2017-05-02T17:09:00.446Z,19.50
2017-05-02T17:11:29.663Z,20.46
2017-05-02T17:13:59.460Z,20.50
2017-05-02T17:16:28.562Z,20.20
2017-05-02T17:18:57.669Z,19.54
2017-05-02T17:21:26.763Z,19.44
2017-05-02T17:23:56.164Z,19.12
2017-05-02T17:26:25.247Z,19.80
2017-05-02T17:28:54.347Z,19.78
2017-05-02T17:31:23.859Z,17.72
2017-05-02T17:33:52.958Z,19.96
2017-05-02T17:36:22.418Z,20.88
2017-05-02T17:38:52.281Z,20.90
2017-05-02T17:41:21.370Z,21.64
2017-05-02T17:43:50.531Z,18.98
2017-05-02T17:46:19.626Z,20.88
2017-05-02T17:48:54.700Z,21.58
2017-05-02T17:51:23.775Z,22.24
2017-05-02T17:53:52.854Z,19.78
2017-05-02T17:56:21.954Z,20.20
2017-05-02T17:58:51.751Z,21.78
2017-05-02T18:01:21.082Z,19.68
2017-05-02T18:03:50.147Z,22.46
2017-05-02T18:06:19.251Z,22.32
2017-05-02T18:08:48.364Z,21.72
2017-05-02T18:11:17.450Z,21.74
2017-05-02T18:13:46.545Z,21.78
2017-05-02T18:16:15.631Z,20.76
2017-05-02T18:18:44.745Z,22.26
2017-05-02T18:21:13.834Z,23.00
2017-05-02T18:23:42.951Z,22.64
2017-05-02T18:26:12.055Z,22.14
2017-05-02T18:28:41.149Z,24.14
2017-05-02T18:31:10.392Z,24.06
2017-05-02T18:33:39.499Z,24.38
2017-05-02T18:36:08.595Z,26.44
2017-05-02T18:38:37.699Z,24.32
2017-05-02T18:41:06.790Z,27.40
2017-05-02T18:43:36.122Z,28.32
2017-05-02T18:46:05.201Z,27.48
2017-05-02T18:48:34.289Z,28.28
2017-05-02T18:51:03.392Z,27.62
2017-05-02T18:53:32.492Z,26.48
2017-05-02T18:56:01.702Z,27.22
2017-05-02T18:58:30.800Z,30.06
2017-05-02T19:00:59.886Z,29.42
2017-05-02T19:03:29.031Z,25.98
2017-05-02T19:05:58.302Z,28.46
2017-05-02T19:08:27.398Z,30.38
2017-05-02T19:10:56.487Z,32.04
2017-05-02T19:13:25.965Z,34.68
2017-05-02T19:15:55.051Z,36.00
2017-05-02T19:18:24.144Z,33.94
2017-05-02T19:20:53.447Z,37.58
2017-05-02T19:23:22.522Z,39.32
2017-05-02T19:25:51.605Z,36.32
2017-05-02T19:28:20.727Z,34.72
2017-05-02T19:30:49.810Z,35.18
2017-05-02T19:33:19.355Z,34.74
2017-05-02T19:35:48.434Z,34.86
2017-05-02T19:38:17.532Z,34.64
2017-05-02T19:40:47.137Z,35.36
2017-05-02T19:43:16.228Z,33.82
2017-05-02T19:45:45.323Z,34.70
2017-05-02T19:48:14.567Z,30.84
2017-05-02T19:50:44.413Z,36.90
2017-05-02T19:53:13.504Z,36.00
2017-05-02T19:55:42.882Z,34.94
2017-05-02T19:58:11.955Z,34.36
2017-05-02T20:00:41.046Z,35.78
2017-05-02T20:03:11.053Z,36.52
2017-05-02T20:05:40.150Z,39.22
2017-05-02T20:08:09.271Z,38.18
2017-05-02T20:10:39.226Z,34.48
2017-05-02T20:13:08.427Z,38.12
2017-05-02T20:15:38.632Z,36.28
2017-05-02T20:18:07.913Z,35.96
2017-05-02T20:20:37.256Z,36.52
2017-05-02T20:23:06.379Z,37.24
2017-05-02T20:25:35.483Z,38.54
2017-05-02T20:28:04.648Z,33.44
2017-05-02T20:30:33.742Z,33.86
2017-05-02T20:33:02.852Z,33.62
2017-05-02T20:35:31.958Z,32.02
2017-05-02T20:38:01.315Z,32.84
2017-05-02T20:40:30.415Z,34.42
2017-05-02T20:42:59.502Z,30.54
2017-05-02T20:45:28.651Z,32.40
2017-05-02T20:47:58.491Z,32.64
2017-05-02T20:50:28.340Z,32.52
2017-05-02T20:52:57.431Z,30.28
2017-05-02T20:55:26.638Z,32.52
2017-05-02T20:57:55.739Z,32.72
2017-05-02T21:00:24.826Z,30.28
2017-05-02T21:02:53.957Z,27.50
2017-05-02T21:05:23.898Z,25.78
2017-05-02T21:07:53.147Z,26.56
2017-05-02T21:10:22.247Z,26.18
2017-05-02T21:12:51.363Z,25.96
2017-05-02T21:15:20.525Z,26.34
2017-05-02T21:17:49.591Z,27.00
2017-05-02T21:20:18.696Z,26.66
2017-05-02T21:22:47.780Z,26.78
2017-05-02T21:25:17.199Z,26.22
2017-05-02T21:27:46.281Z,29.32
2017-05-02T21:30:15.370Z,29.60
2017-05-02T21:32:44.476Z,30.98
2017-05-02T21:35:13.569Z,32.34
2017-05-02T21:37:42.793Z,33.96
2017-05-02T21:40:12.467Z,31.68
2017-05-02T21:42:41.574Z,33.50
2017-05-02T21:45:10.799Z,32.94
2017-05-02T21:47:39.891Z,32.18
2017-05-02T21:50:09.184Z,33.26
2017-05-02T21:52:38.268Z,35.40
2017-05-02T21:55:07.399Z,31.86
2017-05-02T21:57:36.675Z,32.54
2017-05-02T22:00:05.770Z,36.02
2017-05-02T22:02:34.997Z,37.44
2017-05-02T22:05:05.013Z,35.34
2017-05-02T22:07:34.134Z,36.24
2017-05-02T22:10:03.300Z,33.70
2017-05-02T22:12:34.143Z,36.94
2017-05-02T22:15:04.104Z,35.74
2017-05-02T22:17:33.195Z,37.50
2017-05-02T22:20:02.268Z,34.12
2017-05-02T22:22:31.400Z,35.28
2017-05-02T22:25:00.502Z,37.78
2017-05-02T22:27:29.587Z,36.72
2017-05-02T22:29:58.800Z,36.78
2017-05-02T22:32:28.036Z,35.48
2017-05-02T22:34:57.882Z,34.02
2017-05-02T22:37:27.955Z,34.86
2017-05-02T22:39:57.059Z,34.26
2017-05-02T22:42:26.889Z,33.36
2017-05-02T22:44:56.333Z,33.92
2017-05-02T22:47:25.419Z,32.18
2017-05-02T22:49:54.650Z,34.64
2017-05-02T22:52:23.728Z,32.00
2017-05-02T22:54:52.818Z,34.98
2017-05-02T22:57:21.931Z,36.20
2017-05-02T22:59:51.018Z,33.18
2017-05-02T23:02:20.135Z,35.04
2017-05-02T23:04:49.984Z,38.74
2017-05-02T23:07:19.292Z,35.98
2017-05-02T23:09:48.373Z,37.30
2017-05-02T23:12:17.472Z,37.72
2017-05-02T23:14:47.303Z,32.18
2017-05-02T23:17:16.379Z,36.54
2017-05-02T23:19:46.196Z,34.90
2017-05-02T23:22:15.277Z,39.42
2017-05-02T23:24:44.497Z,41.56
2017-05-02T23:27:13.578Z,37.02
2017-05-02T23:29:43.382Z,38.90
2017-05-02T23:32:12.487Z,39.68
2017-05-02T23:34:41.572Z,37.30
2017-05-02T23:37:10.787Z,39.00
2017-05-02T23:39:39.878Z,37.48
2017-05-02T23:42:08.963Z,37.86
2017-05-02T23:44:38.774Z,37.46
2017-05-02T23:47:07.862Z,33.54
2017-05-02T23:49:37.406Z,35.72
2017-05-02T23:52:06.491Z,36.56
2017-05-02T23:54:35.583Z,32.16
2017-05-02T23:57:04.702Z,34.28
2017-05-02T23:59:33.894Z,31.78
